createdAt,value
2023-07-05T00:00:03.748Z,20.79
2023-07-05T00:01:05.833Z,20.78
2023-07-05T00:02:07.187Z,20.78
2023-07-05T00:03:08.615Z,20.76
2023-07-05T00:04:10.576Z,20.72
2023-07-05T00:05:13.154Z,20.73
2023-07-05T00:06:14.578Z,20.72
2023-07-05T00:07:15.957Z,20.79
2023-07-05T00:08:17.382Z,20.79
2023-07-05T00:09:18.773Z,20.78
2023-07-05T00:10:20.296Z,20.71
2023-07-05T00:11:21.641Z,20.83
2023-07-05T00:12:23.026Z,20.88
2023-07-05T00:13:24.830Z,20.78
2023-07-05T00:14:28.417Z,20.72
2023-07-05T00:15:30.927Z,20.68
2023-07-05T00:16:32.342Z,20.67
2023-07-05T00:17:37.268Z,20.60
2023-07-05T00:18:39.166Z,20.61
2023-07-05T00:19:40.509Z,20.59
2023-07-05T00:20:41.833Z,20.61
2023-07-05T00:21:43.225Z,20.60
2023-07-05T00:22:45.004Z,20.52
2023-07-05T00:23:46.920Z,20.49
2023-07-05T00:24:48.364Z,20.47
2023-07-05T00:25:49.682Z,20.47
2023-07-05T00:26:51.046Z,20.49
2023-07-05T00:27:52.596Z,20.45
2023-07-05T00:28:53.934Z,20.40
2023-07-05T00:29:55.408Z,20.32
2023-07-05T00:30:57.004Z,20.30
2023-07-05T00:31:58.336Z,20.40
2023-07-05T00:32:59.785Z,20.43
2023-07-05T00:34:01.233Z,20.39
2023-07-05T00:35:03.066Z,20.38
2023-07-05T00:36:04.832Z,20.33
2023-07-05T00:37:06.592Z,20.29
2023-07-05T00:38:07.893Z,20.31
2023-07-05T00:39:09.259Z,20.29
2023-07-05T00:40:10.922Z,20.29
2023-07-05T00:41:12.294Z,20.30
2023-07-05T00:42:13.716Z,20.33
2023-07-05T00:43:16.349Z,20.27
2023-07-05T00:44:17.969Z,20.24
2023-07-05T00:45:19.396Z,20.23
2023-07-05T00:46:24.692Z,20.26
2023-07-05T00:47:31.742Z,20.32
2023-07-05T00:49:07.095Z,20.31
2023-07-05T00:50:24.052Z,20.26
2023-07-05T00:51:31.350Z,20.24
2023-07-05T00:52:32.724Z,20.19
2023-07-05T00:53:37.502Z,20.14
2023-07-05T00:54:55.366Z,20.15
2023-07-05T00:56:06.213Z,20.17
2023-07-05T00:57:21.620Z,20.25
2023-07-05T00:58:24.786Z,20.24
2023-07-05T00:59:31.728Z,20.23
2023-07-05T01:00:33.162Z,20.22
2023-07-05T01:01:34.706Z,20.21
2023-07-05T01:02:39.694Z,20.21
2023-07-05T01:03:43.594Z,20.18
2023-07-05T01:04:45.041Z,20.22
2023-07-05T01:05:46.811Z,20.25
2023-07-05T01:06:48.231Z,20.27
2023-07-05T01:07:50.326Z,20.32
2023-07-05T01:08:52.626Z,20.35
2023-07-05T01:09:54.018Z,20.35
2023-07-05T01:11:10.407Z,20.44
2023-07-05T01:12:19.934Z,20.47
2023-07-05T01:13:30.122Z,20.43
2023-07-05T01:14:39.720Z,20.46
2023-07-05T01:15:49.872Z,20.52
2023-07-05T01:17:15.826Z,20.51
2023-07-05T01:18:46.269Z,20.58
2023-07-05T01:19:58.336Z,20.57
2023-07-05T01:21:05.314Z,20.51
2023-07-05T01:22:11.174Z,20.51
2023-07-05T01:23:24.952Z,20.53
2023-07-05T01:24:49.112Z,20.50
2023-07-05T01:26:06.639Z,20.61
2023-07-05T01:27:16.587Z,20.60
2023-07-05T01:28:39.916Z,20.55
2023-07-05T01:29:48.684Z,20.45
2023-07-05T01:31:23.685Z,20.49
2023-07-05T01:33:00.232Z,20.43
2023-07-05T01:34:15.081Z,20.38
2023-07-05T01:35:21.550Z,20.40
2023-07-05T01:36:23.608Z,20.40
2023-07-05T01:37:34.063Z,20.42
2023-07-05T01:38:35.463Z,20.49
2023-07-05T01:39:37.280Z,20.43
2023-07-05T01:40:38.556Z,20.37
2023-07-05T01:41:40.192Z,20.41
2023-07-05T01:42:44.204Z,20.35
2023-07-05T01:43:45.851Z,20.39
2023-07-05T01:44:49.300Z,20.41
2023-07-05T01:46:02.889Z,20.38
2023-07-05T01:47:19.416Z,20.40
2023-07-05T01:48:36.000Z,20.41
2023-07-05T01:50:02.958Z,20.34
2023-07-05T01:51:27.052Z,20.36
2023-07-05T01:52:47.490Z,20.33
2023-07-05T01:54:04.014Z,20.31
2023-07-05T01:55:13.733Z,20.31
2023-07-05T01:56:26.278Z,20.29
2023-07-05T01:57:38.411Z,20.27
2023-07-05T01:58:45.892Z,20.28
2023-07-05T01:59:53.640Z,20.31
2023-07-05T02:00:56.598Z,20.28
2023-07-05T02:01:59.727Z,20.32
2023-07-05T02:03:04.532Z,20.32
2023-07-05T02:04:08.023Z,20.30
2023-07-05T02:05:11.024Z,20.25
2023-07-05T02:06:13.426Z,20.21
2023-07-05T02:07:14.930Z,20.24
2023-07-05T02:08:17.317Z,20.24
2023-07-05T02:09:18.744Z,20.18
2023-07-05T02:10:20.635Z,20.10
2023-07-05T02:11:23.253Z,20.08
2023-07-05T02:12:25.725Z,20.08
2023-07-05T02:13:27.572Z,20.05
2023-07-05T02:14:28.996Z,20.05
2023-07-05T02:15:30.412Z,20.08
2023-07-05T02:16:31.818Z,20.09
2023-07-05T02:17:33.256Z,20.11
2023-07-05T02:18:34.669Z,20.11
2023-07-05T02:19:36.447Z,20.10
2023-07-05T02:20:38.820Z,20.11
2023-07-05T02:21:40.160Z,20.13
2023-07-05T02:22:41.555Z,20.13
2023-07-05T02:23:42.947Z,20.15
2023-07-05T02:24:44.284Z,20.16
2023-07-05T02:25:45.751Z,20.17
2023-07-05T02:26:47.317Z,20.12
2023-07-05T02:27:48.875Z,20.15
2023-07-05T02:28:50.262Z,20.10
2023-07-05T02:29:51.645Z,20.00
2023-07-05T02:30:53.041Z,19.93
2023-07-05T02:31:56.456Z,19.87
2023-07-05T02:32:57.799Z,19.76
2023-07-05T02:33:59.226Z,19.70
2023-07-05T02:35:00.848Z,19.66
2023-07-05T02:36:10.551Z,19.66
2023-07-05T02:37:12.784Z,19.65
2023-07-05T02:38:14.200Z,19.62
2023-07-05T02:39:15.533Z,19.52
2023-07-05T02:40:17.011Z,19.44
2023-07-05T02:41:18.416Z,19.54
2023-07-05T02:42:19.823Z,19.59
2023-07-05T02:43:21.133Z,19.57
2023-07-05T02:44:22.578Z,19.51
2023-07-05T02:45:23.969Z,19.47
2023-07-05T02:46:25.430Z,19.46
2023-07-05T02:47:26.880Z,19.45
2023-07-05T02:48:28.312Z,19.48
2023-07-05T02:49:29.753Z,19.47
2023-07-05T02:50:31.132Z,19.44
2023-07-05T02:51:32.603Z,19.42
2023-07-05T02:52:33.940Z,19.38
2023-07-05T02:53:35.334Z,19.31
2023-07-05T02:54:36.760Z,19.38
2023-07-05T02:55:38.166Z,19.35
2023-07-05T02:56:39.812Z,19.32
2023-07-05T02:57:41.222Z,19.29
2023-07-05T02:58:42.558Z,19.27
2023-07-05T02:59:43.933Z,19.29
2023-07-05T03:00:45.451Z,19.31
2023-07-05T03:01:46.870Z,19.31
2023-07-05T03:02:48.583Z,19.35
2023-07-05T03:03:50.058Z,19.36
2023-07-05T03:04:51.462Z,19.34
2023-07-05T03:05:57.314Z,19.34
2023-07-05T03:06:58.899Z,19.31
2023-07-05T03:08:00.299Z,19.35
2023-07-05T03:09:01.834Z,19.34
2023-07-05T03:10:03.674Z,19.31
2023-07-05T03:11:05.085Z,19.32
2023-07-05T03:12:06.990Z,19.28
2023-07-05T03:13:08.408Z,19.29
2023-07-05T03:14:09.774Z,19.28
2023-07-05T03:15:11.279Z,19.28
2023-07-05T03:16:12.607Z,19.24
2023-07-05T03:17:13.955Z,19.24
2023-07-05T03:18:15.316Z,19.24
2023-07-05T03:19:16.835Z,19.21
2023-07-05T03:20:18.165Z,19.18
2023-07-05T03:21:19.569Z,19.25
2023-07-05T03:22:21.166Z,19.23
2023-07-05T03:23:23.075Z,19.16
2023-07-05T03:24:26.169Z,19.12
2023-07-05T03:25:27.591Z,19.12
2023-07-05T03:26:28.984Z,19.11
2023-07-05T03:27:30.322Z,19.08
2023-07-05T03:28:33.238Z,19.05
2023-07-05T03:29:34.561Z,19.03
2023-07-05T03:30:36.980Z,19.01
2023-07-05T03:31:39.143Z,18.95
2023-07-05T03:32:40.650Z,18.93
2023-07-05T03:33:42.579Z,18.90
2023-07-05T03:34:43.925Z,18.90
2023-07-05T03:35:56.317Z,18.83
2023-07-05T03:36:58.072Z,18.81
2023-07-05T03:37:59.430Z,18.80
2023-07-05T03:39:01.309Z,18.81
2023-07-05T03:40:02.671Z,18.83
2023-07-05T03:41:12.089Z,18.80
2023-07-05T03:42:13.475Z,18.79
2023-07-05T03:43:14.876Z,18.77
2023-07-05T03:44:16.353Z,18.80
2023-07-05T03:45:17.702Z,18.80
2023-07-05T03:46:19.127Z,18.83
2023-07-05T03:47:20.624Z,18.85
2023-07-05T03:48:22.532Z,18.83
2023-07-05T03:49:23.944Z,18.84
2023-07-05T03:50:25.309Z,18.80
2023-07-05T03:51:27.009Z,18.79
2023-07-05T03:52:28.395Z,18.82
2023-07-05T03:53:30.058Z,18.85
2023-07-05T03:54:31.382Z,18.88
2023-07-05T03:55:36.509Z,18.89
2023-07-05T03:56:38.799Z,18.92
2023-07-05T03:57:40.156Z,18.96
2023-07-05T03:58:41.492Z,18.94
2023-07-05T03:59:42.956Z,18.92
2023-07-05T04:00:44.791Z,18.91
2023-07-05T04:01:46.220Z,18.90
2023-07-05T04:02:47.694Z,18.92
2023-07-05T04:03:51.598Z,18.91
2023-07-05T04:04:52.990Z,18.94
2023-07-05T04:05:54.291Z,18.97
2023-07-05T04:06:55.665Z,19.01
2023-07-05T04:07:57.080Z,19.09
2023-07-05T04:08:59.167Z,19.10
2023-07-05T04:10:00.549Z,19.08
2023-07-05T04:11:01.933Z,19.05
2023-07-05T04:12:03.394Z,19.05
2023-07-05T04:13:04.789Z,19.07
2023-07-05T04:14:06.250Z,19.09
2023-07-05T04:15:08.297Z,19.15
2023-07-05T04:16:15.541Z,19.15
2023-07-05T04:17:16.939Z,19.21
2023-07-05T04:18:18.255Z,19.18
2023-07-05T04:19:19.688Z,19.22
2023-07-05T04:20:21.037Z,19.23
2023-07-05T04:21:23.774Z,19.19
2023-07-05T04:22:25.138Z,19.19
2023-07-05T04:23:27.375Z,19.21
2023-07-05T04:24:28.742Z,19.23
2023-07-05T04:25:30.159Z,19.26
2023-07-05T04:26:31.913Z,19.30
2023-07-05T04:27:33.354Z,19.32
2023-07-05T04:28:36.332Z,19.34
2023-07-05T04:29:37.662Z,19.35
2023-07-05T04:30:41.963Z,19.38
2023-07-05T04:31:43.496Z,19.43
2023-07-05T04:32:45.190Z,19.40
2023-07-05T04:33:46.644Z,19.43
2023-07-05T04:34:47.996Z,19.41
2023-07-05T04:35:51.289Z,19.38
2023-07-05T04:36:52.602Z,19.45
2023-07-05T04:37:53.962Z,19.41
2023-07-05T04:38:56.657Z,19.37
2023-07-05T04:39:59.196Z,19.35
2023-07-05T04:41:01.491Z,19.34
2023-07-05T04:42:02.913Z,19.32
2023-07-05T04:43:04.291Z,19.34
2023-07-05T04:44:06.901Z,19.35
2023-07-05T04:45:08.846Z,19.35
2023-07-05T04:46:10.272Z,19.36
2023-07-05T04:47:11.696Z,19.43
2023-07-05T04:48:13.042Z,19.45
2023-07-05T04:49:14.400Z,19.48
2023-07-05T04:50:15.768Z,19.52
2023-07-05T04:51:17.505Z,19.50
2023-07-05T04:52:18.835Z,19.50
2023-07-05T04:53:20.769Z,19.56
2023-07-05T04:54:22.159Z,19.52
2023-07-05T04:55:24.024Z,19.56
2023-07-05T04:56:25.395Z,19.78
2023-07-05T04:57:32.489Z,19.93
2023-07-05T04:58:34.471Z,20.00
2023-07-05T04:59:35.846Z,20.04
2023-07-05T05:00:37.447Z,20.18
2023-07-05T05:01:39.302Z,20.34
2023-07-05T05:02:40.968Z,20.46
2023-07-05T05:03:42.668Z,20.54
2023-07-05T05:04:44.040Z,20.56
2023-07-05T05:05:47.205Z,20.52
2023-07-05T05:06:49.074Z,20.51
2023-07-05T05:07:50.470Z,20.57
2023-07-05T05:08:51.810Z,20.56
2023-07-05T05:09:53.172Z,20.61
2023-07-05T05:10:57.604Z,21.16
2023-07-05T05:11:58.934Z,22.09
2023-07-05T05:13:00.257Z,23.19
2023-07-05T05:14:01.762Z,23.67
2023-07-05T05:15:03.347Z,23.72
2023-07-05T05:16:05.988Z,23.51
2023-07-05T05:17:07.941Z,23.33
2023-07-05T05:18:10.404Z,23.11
2023-07-05T05:19:11.937Z,22.87
2023-07-05T05:20:13.321Z,22.49
2023-07-05T05:21:14.786Z,22.21
2023-07-05T05:22:16.145Z,22.36
2023-07-05T05:23:17.780Z,23.08
2023-07-05T05:24:19.177Z,23.77
2023-07-05T05:25:20.576Z,24.76
2023-07-05T05:26:21.890Z,25.84
2023-07-05T05:27:23.228Z,26.62
2023-07-05T05:28:24.642Z,27.25
2023-07-05T05:29:25.978Z,27.30
2023-07-05T05:30:27.599Z,26.92
2023-07-05T05:31:28.998Z,26.59
2023-07-05T05:32:30.381Z,25.96
2023-07-05T05:33:31.881Z,25.39
2023-07-05T05:34:33.344Z,25.03
2023-07-05T05:35:34.690Z,24.56
2023-07-05T05:36:35.996Z,24.18
2023-07-05T05:37:37.490Z,23.82
2023-07-05T05:38:38.898Z,23.62
2023-07-05T05:39:40.639Z,23.53
2023-07-05T05:40:42.880Z,23.40
2023-07-05T05:41:44.188Z,23.19
2023-07-05T05:42:45.963Z,23.26
2023-07-05T05:43:47.378Z,23.11
2023-07-05T05:44:49.100Z,22.99
2023-07-05T05:45:50.428Z,22.87
2023-07-05T05:46:51.921Z,22.77
2023-07-05T05:47:53.409Z,22.61
2023-07-05T05:48:54.804Z,22.56
2023-07-05T05:49:56.186Z,22.43
2023-07-05T05:50:57.763Z,22.41
2023-07-05T05:51:59.140Z,22.32
2023-07-05T05:53:00.555Z,22.34
2023-07-05T05:54:02.535Z,22.37
2023-07-05T05:55:04.751Z,22.39
2023-07-05T05:56:06.138Z,22.38
2023-07-05T05:57:07.531Z,22.29
2023-07-05T05:58:09.566Z,22.31
2023-07-05T05:59:10.943Z,22.21
2023-07-05T06:00:13.161Z,22.22
2023-07-05T06:01:14.713Z,22.23
2023-07-05T06:02:16.271Z,22.22
2023-07-05T06:03:17.910Z,22.15
2023-07-05T06:04:19.368Z,22.18
2023-07-05T06:05:20.755Z,22.15
2023-07-05T06:06:22.090Z,22.08
2023-07-05T06:07:23.495Z,22.08
2023-07-05T06:08:25.352Z,21.97
2023-07-05T06:09:26.725Z,21.95
2023-07-05T06:10:28.192Z,21.91
2023-07-05T06:11:29.555Z,21.84
2023-07-05T06:12:31.207Z,21.82
2023-07-05T06:13:33.519Z,21.68
2023-07-05T06:14:34.908Z,21.63
2023-07-05T06:15:36.222Z,21.45
2023-07-05T06:16:37.539Z,21.31
2023-07-05T06:17:39.436Z,21.16
2023-07-05T06:18:40.805Z,20.97
2023-07-05T06:19:42.223Z,20.92
2023-07-05T06:20:44.806Z,20.80
2023-07-05T06:21:46.104Z,20.70
2023-07-05T06:22:47.502Z,20.69
2023-07-05T06:23:49.053Z,20.71
2023-07-05T06:24:50.400Z,20.69
2023-07-05T06:25:53.443Z,20.65
2023-07-05T06:26:55.711Z,20.67
2023-07-05T06:27:57.207Z,20.61
2023-07-05T06:28:58.557Z,20.56
2023-07-05T06:29:59.968Z,20.54
2023-07-05T06:31:05.959Z,20.50
2023-07-05T06:32:07.468Z,20.36
2023-07-05T06:33:09.061Z,20.17
2023-07-05T06:34:10.791Z,20.04
2023-07-05T06:35:12.181Z,19.80
2023-07-05T06:36:13.679Z,19.68
2023-07-05T06:37:16.294Z,19.50
2023-07-05T06:38:18.059Z,19.26
2023-07-05T06:39:21.061Z,19.11
2023-07-05T06:40:23.248Z,19.01
2023-07-05T06:41:24.646Z,18.90
2023-07-05T06:42:28.218Z,18.88
2023-07-05T06:43:35.805Z,18.84
2023-07-05T06:44:37.177Z,18.87
2023-07-05T06:45:38.495Z,18.82
2023-07-05T06:46:39.884Z,18.72
2023-07-05T06:47:42.002Z,18.67
2023-07-05T06:48:43.339Z,18.62
2023-07-05T06:49:44.734Z,18.61
2023-07-05T06:50:57.027Z,18.60
2023-07-05T06:51:58.639Z,18.63
2023-07-05T06:53:22.554Z,18.65
2023-07-05T06:54:22.140Z,18.63
2023-07-05T06:55:23.560Z,18.64
2023-07-05T06:56:24.922Z,18.62
2023-07-05T06:57:26.261Z,18.62
2023-07-05T06:58:27.600Z,18.66
2023-07-05T06:59:28.959Z,18.65
2023-07-05T07:00:30.260Z,18.61
2023-07-05T07:01:31.619Z,18.66
2023-07-05T07:02:33.006Z,18.64
2023-07-05T07:03:34.323Z,18.60
2023-07-05T07:04:35.758Z,18.62
2023-07-05T07:05:37.132Z,18.60
2023-07-05T07:06:38.464Z,18.57
2023-07-05T07:07:39.828Z,18.56
2023-07-05T07:08:41.223Z,18.58
2023-07-05T07:09:42.642Z,18.63
2023-07-05T07:10:44.173Z,18.57
2023-07-05T07:11:45.488Z,18.51
2023-07-05T07:12:46.812Z,18.56
2023-07-05T07:13:48.336Z,18.62
2023-07-05T07:14:49.732Z,18.69
2023-07-05T07:16:09.150Z,18.69
2023-07-05T07:17:10.579Z,18.69
2023-07-05T07:18:12.098Z,18.71
2023-07-05T07:19:13.498Z,18.76
2023-07-05T07:20:15.847Z,18.81
2023-07-05T07:21:19.507Z,18.84
2023-07-05T07:22:20.950Z,18.86
2023-07-05T07:23:23.510Z,18.85
2023-07-05T07:24:24.898Z,18.95
2023-07-05T07:25:27.426Z,18.92
2023-07-05T07:26:28.780Z,18.96
2023-07-05T07:27:30.111Z,19.02
2023-07-05T07:28:31.480Z,19.01
2023-07-05T07:29:32.844Z,19.00
2023-07-05T07:30:34.213Z,19.15
2023-07-05T07:31:35.630Z,19.33
2023-07-05T07:32:37.051Z,19.40
2023-07-05T07:33:38.562Z,19.49
2023-07-05T07:34:39.933Z,19.53
2023-07-05T07:35:42.488Z,19.63
2023-07-05T07:36:44.984Z,19.64
2023-07-05T07:37:46.474Z,19.65
2023-07-05T07:38:51.609Z,19.80
2023-07-05T07:39:52.969Z,19.89
2023-07-05T07:40:54.447Z,20.01
2023-07-05T07:41:56.595Z,20.07
2023-07-05T07:42:57.971Z,20.27
2023-07-05T07:44:01.451Z,20.59
2023-07-05T07:45:02.862Z,20.92
2023-07-05T07:46:11.554Z,21.56
2023-07-05T07:47:12.954Z,22.08
2023-07-05T07:48:14.332Z,22.52
2023-07-05T07:49:15.747Z,22.58
2023-07-05T07:50:17.237Z,22.51
2023-07-05T07:51:36.675Z,22.32
2023-07-05T07:52:40.238Z,22.02
2023-07-05T07:53:41.563Z,21.87
2023-07-05T07:54:43.816Z,21.78
2023-07-05T07:55:45.132Z,21.38
2023-07-05T07:56:48.313Z,21.25
2023-07-05T07:57:49.696Z,21.22
2023-07-05T07:58:53.183Z,20.86
2023-07-05T07:59:54.584Z,20.75
2023-07-05T08:00:56.224Z,20.66
2023-07-05T08:01:58.036Z,20.48
2023-07-05T08:02:59.471Z,20.61
2023-07-05T08:04:03.348Z,20.80
2023-07-05T08:05:14.177Z,21.18
2023-07-05T08:06:16.442Z,21.65
2023-07-05T08:07:17.820Z,21.93
2023-07-05T08:08:19.380Z,22.18
2023-07-05T08:09:26.759Z,22.34
2023-07-05T08:10:29.070Z,22.23
2023-07-05T08:11:30.949Z,22.09
2023-07-05T08:12:32.396Z,21.84
2023-07-05T08:13:33.917Z,21.59
2023-07-05T08:14:35.337Z,21.43
2023-07-05T08:15:36.831Z,21.25
2023-07-05T08:16:38.582Z,20.84
2023-07-05T08:17:40.045Z,20.43
2023-07-05T08:18:45.969Z,20.31
2023-07-05T08:20:14.285Z,20.36
2023-07-05T08:21:18.588Z,20.59
2023-07-05T08:22:19.949Z,20.84
2023-07-05T08:23:21.751Z,20.81
2023-07-05T08:24:27.203Z,20.86
2023-07-05T08:25:29.322Z,20.89
2023-07-05T08:26:30.669Z,20.93
2023-07-05T08:27:32.048Z,21.09
2023-07-05T08:28:33.501Z,21.04
2023-07-05T08:29:34.892Z,20.97
2023-07-05T08:30:36.290Z,20.95
2023-07-05T08:31:37.788Z,20.89
2023-07-05T08:32:39.277Z,20.59
2023-07-05T08:33:41.689Z,20.50
2023-07-05T08:34:43.122Z,20.45
2023-07-05T08:35:44.509Z,20.48
2023-07-05T08:36:45.981Z,20.32
2023-07-05T08:37:47.385Z,20.30
2023-07-05T08:38:50.938Z,20.26
2023-07-05T08:39:52.418Z,20.36
2023-07-05T08:40:59.050Z,20.53
2023-07-05T08:42:35.917Z,20.57
2023-07-05T08:43:44.070Z,20.51
2023-07-05T08:45:11.949Z,20.42
2023-07-05T08:46:16.004Z,20.28
2023-07-05T08:47:24.546Z,20.18
2023-07-05T08:48:26.014Z,20.19
2023-07-05T08:49:33.960Z,20.26
2023-07-05T08:50:43.647Z,20.32
2023-07-05T08:51:50.250Z,20.40
2023-07-05T08:52:58.398Z,20.59
2023-07-05T08:54:03.105Z,20.78
2023-07-05T08:55:08.413Z,20.84
2023-07-05T08:56:18.694Z,21.05
2023-07-05T08:57:41.174Z,21.24
2023-07-05T08:58:48.358Z,21.41
2023-07-05T08:59:55.291Z,21.50
2023-07-05T09:01:06.286Z,21.78
2023-07-05T09:02:10.105Z,21.98
2023-07-05T09:03:13.494Z,22.16
2023-07-05T09:04:23.680Z,22.16
2023-07-05T09:05:49.690Z,22.26
2023-07-05T09:06:58.680Z,22.23
2023-07-05T09:08:25.404Z,22.38
2023-07-05T09:09:47.928Z,22.28
2023-07-05T09:10:56.108Z,22.25
2023-07-05T09:12:06.508Z,22.32
2023-07-05T09:13:15.696Z,22.26
2023-07-05T09:14:26.121Z,22.26
2023-07-05T09:15:35.509Z,22.27
2023-07-05T09:16:44.741Z,22.30
2023-07-05T09:17:46.199Z,22.30
2023-07-05T09:18:56.690Z,22.22
2023-07-05T09:20:26.933Z,22.17
2023-07-05T09:21:37.676Z,22.43
2023-07-05T09:22:40.355Z,22.51
2023-07-05T09:23:52.444Z,22.52
2023-07-05T09:24:55.221Z,22.50
2023-07-05T09:26:14.118Z,22.34
2023-07-05T09:27:15.352Z,22.42
2023-07-05T09:28:25.876Z,22.33
2023-07-05T09:30:00.957Z,22.39
2023-07-05T09:31:02.385Z,22.29
2023-07-05T09:32:14.624Z,22.34
2023-07-05T09:33:31.397Z,22.52
2023-07-05T09:34:43.898Z,22.51
2023-07-05T09:35:48.061Z,22.55
2023-07-05T09:36:49.499Z,22.51
2023-07-05T09:38:23.211Z,22.44
2023-07-05T09:39:34.641Z,22.17
2023-07-05T09:40:41.344Z,22.16
2023-07-05T09:41:47.748Z,22.36
2023-07-05T09:42:57.312Z,22.52
2023-07-05T09:43:58.744Z,22.60
2023-07-05T09:45:00.264Z,22.74
2023-07-05T09:46:07.899Z,22.82
2023-07-05T09:47:10.049Z,22.80
2023-07-05T09:48:12.896Z,22.81
2023-07-05T09:49:16.842Z,22.88
2023-07-05T09:50:21.309Z,22.79
2023-07-05T09:51:23.068Z,22.76
2023-07-05T09:52:26.389Z,22.69
2023-07-05T09:53:46.194Z,22.66
2023-07-05T09:54:50.055Z,22.73
2023-07-05T09:56:06.499Z,22.87
2023-07-05T09:57:09.479Z,23.02
2023-07-05T09:58:16.567Z,23.18
2023-07-05T09:59:22.096Z,23.11
2023-07-05T10:00:27.901Z,23.16
2023-07-05T10:01:31.319Z,23.21
2023-07-05T10:02:35.567Z,23.26
2023-07-05T10:03:39.120Z,23.26
2023-07-05T10:04:49.634Z,23.35
2023-07-05T10:05:55.892Z,23.34
2023-07-05T10:06:57.590Z,23.31
2023-07-05T10:08:01.801Z,23.27
2023-07-05T10:09:14.259Z,23.35
2023-07-05T10:10:15.660Z,23.27
2023-07-05T10:11:26.393Z,22.89
2023-07-05T10:12:39.600Z,22.94
2023-07-05T10:13:41.346Z,23.17
2023-07-05T10:14:42.727Z,23.14
2023-07-05T10:15:50.660Z,23.26
2023-07-05T10:16:57.544Z,23.42
2023-07-05T10:17:59.167Z,23.50
2023-07-05T10:19:00.589Z,23.40
2023-07-05T10:20:01.998Z,23.50
2023-07-05T10:21:05.852Z,23.63
2023-07-05T10:22:15.102Z,23.80
2023-07-05T10:23:21.301Z,23.85
2023-07-05T10:24:22.735Z,23.87
2023-07-05T10:25:24.187Z,23.89
2023-07-05T10:26:25.650Z,23.94
2023-07-05T10:27:36.025Z,23.94
2023-07-05T10:28:37.473Z,24.11
2023-07-05T10:29:41.117Z,24.20
2023-07-05T10:30:54.185Z,24.26
2023-07-05T10:31:57.275Z,24.35
2023-07-05T10:33:09.233Z,24.61
2023-07-05T10:34:21.020Z,24.64
2023-07-05T10:35:28.404Z,24.73
2023-07-05T10:36:30.000Z,24.57
2023-07-05T10:37:39.297Z,24.38
2023-07-05T10:38:40.659Z,24.55
2023-07-05T10:39:42.117Z,24.65
2023-07-05T10:40:43.587Z,24.88
2023-07-05T10:41:45.023Z,24.80
2023-07-05T10:42:50.918Z,24.68
2023-07-05T10:44:16.836Z,24.79
2023-07-05T10:45:21.854Z,24.85
2023-07-05T10:46:26.565Z,24.61
2023-07-05T10:47:29.035Z,24.45
2023-07-05T10:48:40.876Z,24.36
2023-07-05T10:49:42.925Z,24.64
2023-07-05T10:50:46.945Z,24.75
2023-07-05T10:51:52.857Z,24.57
2023-07-05T10:53:10.979Z,24.78
2023-07-05T10:54:33.950Z,24.98
2023-07-05T10:56:03.657Z,24.89
2023-07-05T10:57:15.873Z,24.88
2023-07-05T10:58:21.398Z,24.86
2023-07-05T10:59:41.403Z,25.06
2023-07-05T11:00:48.660Z,25.22
2023-07-05T11:01:56.752Z,25.41
2023-07-05T11:03:09.956Z,25.53
2023-07-05T11:04:14.059Z,25.53
2023-07-05T11:05:45.173Z,25.57
2023-07-05T11:06:49.085Z,25.69
2023-07-05T11:07:53.483Z,25.70
2023-07-05T11:08:55.075Z,25.78
2023-07-05T11:09:57.725Z,25.70
2023-07-05T11:11:02.773Z,25.79
2023-07-05T11:12:11.912Z,25.72
2023-07-05T11:13:17.604Z,25.58
2023-07-05T11:14:19.490Z,25.25
2023-07-05T11:15:21.180Z,25.24
2023-07-05T11:16:28.408Z,25.38
2023-07-05T11:17:36.298Z,25.29
2023-07-05T11:18:37.980Z,25.44
2023-07-05T11:19:40.379Z,25.60
2023-07-05T11:20:41.760Z,25.91
2023-07-05T11:21:45.964Z,25.71
2023-07-05T11:22:47.612Z,25.68
2023-07-05T11:23:49.097Z,25.56
2023-07-05T11:24:50.788Z,25.34
2023-07-05T11:25:54.890Z,25.46
2023-07-05T11:26:56.296Z,25.41
2023-07-05T11:27:57.757Z,25.20
2023-07-05T11:28:59.662Z,25.19
2023-07-05T11:30:01.124Z,25.44
2023-07-05T11:31:03.969Z,25.44
2023-07-05T11:32:06.502Z,25.48
2023-07-05T11:33:08.100Z,25.46
2023-07-05T11:34:24.761Z,25.66
2023-07-05T11:35:46.089Z,25.73
2023-07-05T11:36:53.235Z,25.89
2023-07-05T11:37:54.574Z,26.11
2023-07-05T11:38:57.736Z,26.14
2023-07-05T11:39:59.139Z,26.21
2023-07-05T11:41:00.895Z,26.12
2023-07-05T11:42:14.489Z,26.17
2023-07-05T11:43:39.771Z,26.01
2023-07-05T11:44:56.351Z,26.17
2023-07-05T11:45:57.841Z,26.14
2023-07-05T11:46:59.670Z,26.34
2023-07-05T11:48:01.066Z,26.47
2023-07-05T11:49:39.768Z,26.57
2023-07-05T11:50:43.753Z,26.60
2023-07-05T11:51:45.969Z,26.70
2023-07-05T11:52:57.421Z,26.58
2023-07-05T11:54:01.896Z,26.52
2023-07-05T11:55:15.451Z,26.41
2023-07-05T11:56:18.261Z,26.18
2023-07-05T11:57:20.533Z,26.24
2023-07-05T11:58:30.407Z,26.39
2023-07-05T11:59:35.314Z,26.62
2023-07-05T12:00:49.172Z,26.58
2023-07-05T12:01:53.782Z,26.55
2023-07-05T12:03:13.708Z,26.71
2023-07-05T12:04:21.104Z,26.77
2023-07-05T12:05:26.902Z,27.05
2023-07-05T12:06:47.751Z,26.75
2023-07-05T12:07:58.032Z,26.49
2023-07-05T12:09:05.018Z,26.48
2023-07-05T12:10:10.756Z,26.53
2023-07-05T12:11:26.623Z,26.76
2023-07-05T12:12:28.073Z,26.79
2023-07-05T12:13:34.395Z,26.44
2023-07-05T12:14:37.648Z,26.13
2023-07-05T12:15:39.805Z,26.18
2023-07-05T12:16:43.937Z,26.08
2023-07-05T12:17:46.912Z,26.35
2023-07-05T12:18:48.572Z,26.66
2023-07-05T12:19:49.958Z,26.93
2023-07-05T12:20:53.599Z,26.68
2023-07-05T12:21:58.869Z,26.79
2023-07-05T12:23:00.967Z,26.81
2023-07-05T12:24:06.320Z,26.74
2023-07-05T12:25:11.181Z,26.57
2023-07-05T12:26:23.531Z,26.16
2023-07-05T12:27:26.737Z,26.31
2023-07-05T12:28:30.281Z,26.31
2023-07-05T12:29:31.629Z,26.26
2023-07-05T12:30:39.561Z,26.18
2023-07-05T12:31:41.000Z,26.41
2023-07-05T12:32:48.904Z,26.47
2023-07-05T12:33:56.174Z,26.56
2023-07-05T12:35:15.537Z,26.74
2023-07-05T12:36:19.175Z,26.74
2023-07-05T12:37:30.499Z,27.02
2023-07-05T12:38:32.652Z,27.07
2023-07-05T12:39:33.983Z,26.82
2023-07-05T12:40:39.654Z,26.77
2023-07-05T12:41:41.136Z,26.71
2023-07-05T12:42:54.140Z,26.54
2023-07-05T12:44:02.647Z,26.50
2023-07-05T12:45:11.332Z,26.55
2023-07-05T12:46:22.302Z,26.28
2023-07-05T12:47:27.178Z,26.16
2023-07-05T12:48:28.812Z,25.93
2023-07-05T12:49:30.175Z,26.19
2023-07-05T12:50:31.631Z,26.50
2023-07-05T12:51:33.025Z,26.49
2023-07-05T12:52:34.341Z,26.76
2023-07-05T12:53:36.055Z,26.52
2023-07-05T12:54:39.050Z,26.61
2023-07-05T12:55:41.988Z,26.67
2023-07-05T12:56:45.738Z,26.67
2023-07-05T12:57:48.642Z,26.67
2023-07-05T12:58:58.626Z,26.84
2023-07-05T13:00:05.959Z,27.04
2023-07-05T13:01:13.308Z,27.31
2023-07-05T13:02:20.834Z,27.26
2023-07-05T13:03:22.454Z,27.13
2023-07-05T13:04:25.172Z,26.86
2023-07-05T13:05:28.619Z,26.94
2023-07-05T13:06:30.325Z,27.10
2023-07-05T13:07:31.949Z,27.06
2023-07-05T13:08:33.343Z,27.12
2023-07-05T13:09:37.215Z,26.97
2023-07-05T13:10:39.180Z,26.98
2023-07-05T13:12:06.695Z,26.79
2023-07-05T13:13:32.818Z,26.89
2023-07-05T13:14:39.821Z,27.11
2023-07-05T13:15:41.589Z,27.09
2023-07-05T13:16:42.923Z,27.10
2023-07-05T13:17:45.549Z,26.90
2023-07-05T13:18:57.403Z,27.07
2023-07-05T13:20:10.637Z,26.93
2023-07-05T13:21:14.485Z,26.76
2023-07-05T13:22:28.397Z,26.97
2023-07-05T13:23:30.347Z,26.94
2023-07-05T13:24:31.672Z,26.93
2023-07-05T13:25:46.165Z,26.99
2023-07-05T13:26:47.969Z,27.02
2023-07-05T13:27:49.334Z,27.15
2023-07-05T13:28:50.715Z,27.02
2023-07-05T13:29:52.682Z,27.03
2023-07-05T13:30:56.026Z,27.23
2023-07-05T13:31:58.019Z,27.12
2023-07-05T13:33:02.290Z,27.03
2023-07-05T13:34:03.674Z,26.96
2023-07-05T13:35:06.029Z,27.09
2023-07-05T13:36:08.890Z,27.25
2023-07-05T13:37:15.048Z,27.27
2023-07-05T13:38:21.491Z,27.37
2023-07-05T13:39:22.848Z,27.36
2023-07-05T13:40:27.532Z,27.40
2023-07-05T13:41:30.255Z,27.20
2023-07-05T13:42:31.607Z,27.16
2023-07-05T13:43:34.284Z,27.15
2023-07-05T13:44:35.650Z,27.10
2023-07-05T13:45:37.020Z,27.27
2023-07-05T13:46:39.073Z,27.35
2023-07-05T13:47:40.526Z,27.20
2023-07-05T13:48:41.925Z,27.07
2023-07-05T13:49:44.105Z,26.70
2023-07-05T13:50:45.852Z,26.52
2023-07-05T13:51:50.499Z,26.61